Pagrindinis puslapis
METAR-TAF:

METAR-TAF

Oro uostai :

Ørland, Norvegija

platuma: 63-42N, ilguma: 009-36E, Aukštis: 0 m

Dabartinis oras

Ataskaita buvo paskelbta 29 minutes, ne 22:50 UTC
Vėjas 12 kt iš Rytų/Pietryčių
Temperatūra 14°C
Drėgmė 82%
Slėgis 1011 hPa
Matomumas 10 km arba daugiau
Mažai debesys ne aukštis 1000 ft

METAR: ENOL 022250Z 12012KT 9999 FEW010 14/11 Q1011

Laikas: 01:19 (23:19 UTC)

Prognozė

Prognozė galioja nuo 02 metu 18 UTC su 03 metu 18 UTC
Vėjas 12 kt iš Pietryčių
Matomumas 10 km arba daugiau
Mažai debesys ne aukštis 1000 ft
Su prošvaistėmis ne aukštis 3000 ft
Tapsmas
nuo 03 metu 09 UTC su 03 metu 11 UTC
Vėjas 8 kt iš Šiaurės
Laikinai
nuo 03 metu 09 UTC su 03 metu 18 UTC
Su prošvaistėmis ne aukštis 3000 ft, Liūtiniai kamuoliniai debesys.
lietus
Tikimybė 30% :
Laikinai
nuo 03 metu 12 UTC su 03 metu 18 UTC
perkūnija

TAF: ENOL 0218/0318 14012KT 9999 FEW010 BKN030 BECMG 0309/0311 35008KT TEMPO 0309/0318 SHRA BKN030CB PROB30 TEMPO 0312/0318 TS

Orai ataskaitas ir orų prognozės (METAR, TAF).

turimą stotys yra geltonos ir raudonos taškus žemėlapyje.

Perkelti pele per norėdami pamatyti stoties vardą.

Tada spustelėkite, norėdami matyti oro stebėjimo ir prognozės.

Norėdami pakeisti žemėlapį: spustelėkite ant žalios mygtukų su juodo kryžiaus žemyn,; žalią mygtuką su brūkšneliu, jei norite nutolinti; arba žalių rodyklių gretimoms žemėlapius.


METAR-TAF: